Portada
METAR-TAF:

METAR-TAF

Aeropuertos :

Aeropuerto de Santander

Santander, España

latitud: 43-26N, longitud: 003-49W, altitud: 6 m

Observación

El informe se hizo hace 43 minutos, a las 16:30 UTC
Viento 6 kt del noreste, variando entre norte y este-sureste
Temperatura 18°C
Humedad 73%
Presión 1028 hPa
Visibilidad 10 km o más
sin nubes por debajo de 1500 m y sin presencia de cumulonimbus.

METAR: LEXJ 261630Z 04006KT 350V120 CAVOK 18/13 Q1028

Hora: 19:13 (17:13 UTC)

Pronóstico

El informe se hizo hace 3 horas y 13 minutos, a las 14:00 UTC
Pronóstico válido del 26 a las 15 UTC al 27 a las 15 UTC
Viento 9 kt del noreste
Visibilidad 10 km o más
Nubes dispersas a una altura de 2000 ft
Probabilidad 30% :
Temporalmente
del 27 a las 00 UTC al 27 a las 07 UTC
Cielo nuboso a una altura de 1400 ft

TAF: LEXJ 261400Z 2615/2715 04009KT 9999 SCT020 TX21/2715Z TN14/2700Z PROB30 TEMPO 2700/2707 BKN014

Observaciones y pronósticos meteorológicos de más de 4000 aeropuertos (mensajes METAR y TAF).

Los puntos amarillos y rojos representan las estaciones disponibles.

Ponga el ratón en el punto deseado para ver el nombre de la estación.

Haga clic para ver las observaciones y los pronósticos meteorológicos.

Para cambiar el mapa : haga clic en los botones verdes con una cruz de color negro para hacer un zoom, en el botón verde con un guión para alejar o en las flechas verdes para mapas adyacentes.


METAR-TAF: